Time;durP1;ratioP1;P1;durP2;ratioP2;P2;SDS_P1;SDS_P2;PMS_P1;PMS_P2;Temp;Humidity;BMP_temperature;BMP_pressure;BME280_temperature;BME280_humidity;BME280_pressure;Samples;Min_cycle;Max_cycle;Signal;HPM_P1;HPM_P2
2022/05/12 00:02:09;;;;;;;20.10;10.93;;;17.60;98.30;;;;;;4958535;28;20047;-71
2022/05/12 00:04:37;;;;;;;22.42;11.13;;;17.70;98.20;;;;;;4958303;28;20031;-67
2022/05/12 00:07:05;;;;;;;20.50;9.82;;;17.70;98.30;;;;;;4956291;28;20027;-69
2022/05/12 00:09:33;;;;;;;21.15;11.60;;;17.70;98.20;;;;;;4954447;28;20395;-68
2022/05/12 00:12:00;;;;;;;25.52;11.98;;;17.80;98.30;;;;;;4957569;28;20494;-68
2022/05/12 00:14:28;;;;;;;23.83;10.32;;;17.80;98.30;;;;;;4957916;28;20379;-68
2022/05/12 00:16:58;;;;;;;24.48;11.13;;;17.80;97.90;;;;;;4957803;28;20448;-68
2022/05/12 00:19:27;;;;;;;23.75;11.00;;;17.80;98.10;;;;;;4957441;28;20114;-68
2022/05/12 00:21:55;;;;;;;24.63;10.43;;;17.90;98.10;;;;;;4955038;28;20089;-68
2022/05/12 00:24:24;;;;;;;20.27;10.05;;;17.90;98.10;;;;;;4959362;28;20027;-68
2022/05/12 00:26:51;;;;;;;23.35;9.85;;;17.80;98.00;;;;;;4956971;28;20030;-68
2022/05/12 00:29:19;;;;;;;18.83;8.45;;;17.80;97.70;;;;;;4969510;28;20138;-67
2022/05/12 00:31:47;;;;;;;17.33;8.02;;;17.80;97.70;;;;;;4972901;28;20031;-68
2022/05/12 00:34:16;;;;;;;17.52;9.05;;;17.80;97.80;;;;;;4957765;28;20093;-69
2022/05/12 00:36:44;;;;;;;16.45;8.93;;;17.80;97.90;;;;;;4956581;28;20031;-68
2022/05/12 00:39:12;;;;;;;18.20;9.23;;;17.80;98.10;;;;;;4953819;28;20030;-68
2022/05/12 00:41:39;;;;;;;27.15;8.32;;;17.80;98.00;;;;;;4960311;28;20517;-69
2022/05/12 00:44:10;;;;;;;23.63;10.77;;;17.80;98.00;;;;;;4959641;28;20030;-68
2022/05/12 00:46:41;;;;;;;17.85;9.23;;;17.90;98.10;;;;;;4958690;28;20100;-69
2022/05/12 00:49:31;;;;;;;22.50;8.52;;;18.00;98.30;;;;;;4957703;28;20028;-68
2022/05/12 00:52:08;;;;;;;19.30;10.50;;;18.00;97.90;;;;;;4958964;28;20498;-67
2022/05/12 00:54:46;;;;;;;19.27;9.93;;;18.10;98.10;;;;;;4955816;28;20031;-67
2022/05/12 00:57:20;;;;;;;18.25;9.55;;;18.20;98.00;;;;;;4957292;28;20495;-68
2022/05/12 00:59:48;;;;;;;27.02;10.65;;;18.20;98.00;;;;;;4956865;28;20031;-68
2022/05/12 01:02:18;;;;;;;22.48;10.52;;;18.30;98.20;;;;;;4954504;28;20141;-68
2022/05/12 01:04:47;;;;;;;22.00;10.27;;;18.40;98.00;;;;;;4954831;28;20031;-68
2022/05/12 01:07:15;;;;;;;19.50;10.80;;;18.50;97.90;;;;;;4955885;28;20023;-69
2022/05/12 01:09:43;;;;;;;20.13;10.02;;;18.50;97.60;;;;;;4956497;28;20369;-68
2022/05/12 01:12:12;;;;;;;20.50;10.68;;;18.50;97.30;;;;;;4958923;28;20035;-69
2022/05/12 01:14:39;;;;;;;19.73;10.15;;;18.60;97.60;;;;;;4957899;28;20562;-68
2022/05/12 01:17:08;;;;;;;21.05;11.43;;;18.60;98.10;;;;;;4956807;28;20149;-68
2022/05/12 01:19:38;;;;;;;20.45;10.00;;;18.70;97.70;;;;;;4958889;28;20398;-69
2022/05/12 01:22:08;;;;;;;27.67;11.27;;;18.70;97.40;;;;;;4963648;28;20029;-68
2022/05/12 01:24:44;;;;;;;24.52;9.48;;;18.70;97.00;;;;;;4960277;28;20124;-68
2022/05/12 01:27:21;;;;;;;19.75;11.15;;;18.70;96.90;;;;;;4959404;28;20081;-69
2022/05/12 01:29:54;;;;;;;20.05;9.65;;;18.80;97.30;;;;;;4965212;28;20110;-65
2022/05/12 01:32:23;;;;;;;21.85;10.27;;;18.90;97.20;;;;;;4990813;28;20672;-63
2022/05/12 01:34:52;;;;;;;20.02;9.18;;;19.00;96.40;;;;;;4979526;28;20026;-64
2022/05/12 01:37:20;;;;;;;18.70;9.43;;;19.00;96.60;;;;;;5024078;28;20424;-62
2022/05/12 01:39:48;;;;;;;20.63;8.73;;;19.10;96.90;;;;;;4966757;28;20026;-63
2022/05/12 01:42:15;;;;;;;15.70;8.90;;;19.10;96.20;;;;;;4976623;28;20114;-62
2022/05/12 01:44:43;;;;;;;21.52;8.75;;;19.10;95.90;;;;;;4976564;28;20023;-63
2022/05/12 01:47:12;;;;;;;14.90;7.82;;;19.10;95.80;;;;;;4970721;28;20031;-63
2022/05/12 01:49:39;;;;;;;14.70;7.22;;;19.20;96.10;;;;;;4968812;28;20042;-63
2022/05/12 01:52:07;;;;;;;26.73;9.55;;;19.20;96.00;;;;;;4961661;28;20042;-62
2022/05/12 01:54:35;;;;;;;15.85;7.88;;;19.20;96.50;;;;;;4950855;28;20034;-63
2022/05/12 01:57:02;;;;;;;18.48;9.25;;;19.30;96.20;;;;;;4960739;28;20144;-63
2022/05/12 01:59:29;;;;;;;24.70;10.07;;;19.40;96.20;;;;;;4969947;28;20022;-62
2022/05/12 02:01:57;;;;;;;21.85;9.90;;;19.40;96.00;;;;;;4960410;28;20051;-62
2022/05/12 02:04:24;;;;;;;13.50;7.22;;;19.50;95.80;;;;;;4954914;28;20032;-62
2022/05/12 02:06:51;;;;;;;19.20;8.50;;;19.50;95.50;;;;;;4960523;28;20039;-63
2022/05/12 02:09:18;;;;;;;25.92;11.35;;;19.40;95.50;;;;;;4971872;28;20023;-62
2022/05/12 02:11:46;;;;;;;20.90;10.55;;;19.30;95.60;;;;;;4954476;28;20050;-62
2022/05/12 02:14:14;;;;;;;21.50;9.68;;;19.30;95.80;;;;;;4956211;28;20503;-62
2022/05/12 02:16:41;;;;;;;14.40;10.48;;;19.30;95.60;;;;;;4970121;28;20433;-63
2022/05/12 02:19:11;;;;;;;17.10;11.10;;;19.30;95.80;;;;;;4967785;28;20494;-62
2022/05/12 02:21:38;;;;;;;24.45;11.35;;;19.40;96.20;;;;;;4977972;28;20042;-62
2022/05/12 02:24:06;;;;;;;24.63;13.48;;;19.30;96.10;;;;;;5001209;28;20385;-64
2022/05/12 02:26:33;;;;;;;26.75;12.20;;;19.30;96.10;;;;;;5019676;28;20059;-63
2022/05/12 02:29:01;;;;;;;22.55;11.65;;;19.30;96.40;;;;;;4976795;28;20022;-62
2022/05/12 02:31:28;;;;;;;23.85;10.93;;;19.30;96.60;;;;;;5001505;28;20019;-61
2022/05/12 02:33:55;;;;;;;19.75;11.25;;;19.30;96.40;;;;;;5064366;28;20024;-61
2022/05/12 02:36:23;;;;;;;22.75;12.57;;;19.30;96.40;;;;;;4971053;28;20030;-61
2022/05/12 02:38:50;;;;;;;24.25;12.75;;;19.30;96.50;;;;;;4964279;28;20061;-62
2022/05/12 02:41:18;;;;;;;28.73;11.88;;;19.30;96.80;;;;;;4969568;28;20027;-61
2022/05/12 02:43:45;;;;;;;25.50;12.63;;;19.30;96.50;;;;;;4959046;28;20034;-62
2022/05/12 02:46:13;;;;;;;26.48;13.40;;;19.20;96.70;;;;;;4953137;28;20023;-61
2022/05/12 02:48:44;;;;;;;23.20;13.00;;;19.30;97.10;;;;;;4964845;28;20030;-62
2022/05/12 02:51:13;;;;;;;22.58;11.88;;;19.30;97.10;;;;;;4955627;28;20140;-63
2022/05/12 02:53:41;;;;;;;25.65;10.88;;;19.40;97.00;;;;;;4956279;28;20105;-60
2022/05/12 02:56:09;;;;;;;31.65;10.23;;;19.40;97.00;;;;;;4979885;28;20026;-62
2022/05/12 02:58:37;;;;;;;26.05;10.10;;;19.40;96.40;;;;;;5017184;28;20036;-61
2022/05/12 03:01:08;;;;;;;20.27;10.50;;;19.30;96.50;;;;;;4960228;28;20554;-62
2022/05/12 03:03:36;;;;;;;18.48;9.07;;;19.30;96.20;;;;;;4961385;28;20051;-61
2022/05/12 03:06:03;;;;;;;17.02;9.13;;;19.20;96.40;;;;;;4998659;28;20478;-62
2022/05/12 03:08:30;;;;;;;16.73;8.57;;;19.20;96.30;;;;;;4997599;28;20034;-61
2022/05/12 03:10:57;;;;;;;22.48;11.05;;;19.10;96.60;;;;;;4967879;28;20038;-62
2022/05/12 03:13:25;;;;;;;23.10;10.65;;;19.10;96.30;;;;;;4966759;28;20861;-61
2022/05/12 03:15:52;;;;;;;19.75;9.07;;;19.00;96.60;;;;;;4988897;28;20053;-61
2022/05/12 03:18:20;;;;;;;32.63;10.75;;;19.00;96.50;;;;;;5039410;28;20363;-61
2022/05/12 03:20:47;;;;;;;18.65;9.25;;;19.00;96.80;;;;;;4979635;28;20022;-64
2022/05/12 03:23:15;;;;;;;17.90;8.77;;;19.10;97.00;;;;;;5035135;28;20025;-63
2022/05/12 03:25:45;;;;;;;20.25;9.27;;;19.10;97.00;;;;;;4966499;28;20022;-62
2022/05/12 03:28:13;;;;;;;21.65;9.63;;;19.20;97.30;;;;;;4965505;28;20881;-61
2022/05/12 03:30:42;;;;;;;21.17;8.27;;;19.20;96.70;;;;;;4977326;28;20023;-62
2022/05/12 03:33:09;;;;;;;25.60;8.45;;;19.20;96.70;;;;;;4986604;28;20142;-62
2022/05/12 03:35:37;;;;;;;18.38;7.53;;;19.20;96.90;;;;;;4959579;28;20026;-62
2022/05/12 03:38:07;;;;;;;20.98;8.68;;;19.30;96.80;;;;;;4975234;28;20026;-62
2022/05/12 03:40:35;;;;;;;15.20;6.88;;;19.30;96.70;;;;;;4957555;28;20038;-62
2022/05/12 03:43:02;;;;;;;22.13;7.50;;;19.30;96.60;;;;;;4964464;28;20509;-62
2022/05/12 03:45:30;;;;;;;22.98;7.68;;;19.30;96.50;;;;;;4978854;28;20038;-62
2022/05/12 03:47:58;;;;;;;22.25;8.95;;;19.30;96.60;;;;;;4952801;28;20490;-62
2022/05/12 03:50:28;;;;;;;20.23;7.95;;;19.30;96.50;;;;;;4960247;28;20026;-62
2022/05/12 03:52:56;;;;;;;22.20;8.98;;;19.40;96.60;;;;;;4964146;28;20051;-62
2022/05/12 03:55:26;;;;;;;18.05;7.57;;;19.40;96.30;;;;;;4948093;28;20035;-63
2022/05/12 03:57:55;;;;;;;23.38;8.75;;;19.50;96.20;;;;;;4962926;28;20038;-62
2022/05/12 04:00:26;;;;;;;27.98;8.32;;;19.50;96.40;;;;;;4978197;28;20038;-62
2022/05/12 04:02:54;;;;;;;19.75;8.90;;;19.60;96.20;;;;;;5024514;28;20028;-62
2022/05/12 04:05:22;;;;;;;18.60;7.38;;;19.60;96.10;;;;;;4968485;28;20031;-62
2022/05/12 04:07:51;;;;;;;22.52;9.32;;;19.70;96.30;;;;;;4985181;28;20042;-62
2022/05/12 04:10:18;;;;;;;19.90;8.10;;;19.70;96.20;;;;;;4983679;28;20031;-62
2022/05/12 04:12:45;;;;;;;23.15;8.02;;;19.70;96.20;;;;;;4965493;28;20027;-62
2022/05/12 04:15:15;;;;;;;15.57;8.00;;;19.70;95.70;;;;;;4959025;28;20023;-62
2022/05/12 04:17:54;;;;;;;22.67;8.70;;;19.70;95.80;;;;;;4978791;28;20034;-63
2022/05/12 04:20:21;;;;;;;15.27;7.00;;;19.70;95.80;;;;;;4950862;28;21793;-63
2022/05/12 04:22:49;;;;;;;17.85;8.05;;;19.60;95.90;;;;;;4965137;28;20026;-63
2022/05/12 04:25:16;;;;;;;18.35;7.85;;;19.50;95.80;;;;;;4965778;28;20143;-62
2022/05/12 04:27:43;;;;;;;22.60;7.60;;;19.60;96.30;;;;;;4974806;28;20393;-62
2022/05/12 04:30:13;;;;;;;20.38;9.57;;;19.60;96.30;;;;;;4959397;28;20023;-62
2022/05/12 04:32:41;;;;;;;18.80;9.20;;;19.60;96.00;;;;;;4968655;28;20070;-63
2022/05/12 04:35:13;;;;;;;21.17;8.65;;;19.60;96.10;;;;;;4959195;28;20035;-63
2022/05/12 04:37:50;;;;;;;22.17;9.05;;;19.70;96.20;;;;;;4955789;28;20051;-62
2022/05/12 04:40:30;;;;;;;21.85;8.07;;;19.70;96.10;;;;;;4958292;28;20474;-63
2022/05/12 04:42:59;;;;;;;21.77;7.57;;;19.70;96.20;;;;;;4959288;28;20046;-62
2022/05/12 04:45:30;;;;;;;18.10;7.60;;;19.80;96.20;;;;;;4957566;28;20039;-62
2022/05/12 04:47:57;;;;;;;21.63;8.80;;;19.80;96.30;;;;;;4961663;28;20050;-62
2022/05/12 04:50:31;;;;;;;41.35;7.85;;;19.90;96.00;;;;;;4957124;28;20039;-63
2022/05/12 04:52:59;;;;;;;21.30;5.90;;;19.90;96.10;;;;;;4956330;28;20031;-62
2022/05/12 04:55:27;;;;;;;20.83;6.85;;;19.90;95.70;;;;;;4966426;28;20519;-62
2022/05/12 04:57:56;;;;;;;20.23;5.10;;;19.80;95.00;;;;;;4958668;28;20027;-62
2022/05/12 05:00:27;;;;;;;10.18;5.25;;;19.70;95.20;;;;;;4966314;28;20050;-62
2022/05/12 05:02:57;;;;;;;16.33;5.88;;;19.70;95.50;;;;;;4953443;28;20055;-62
2022/05/12 05:05:24;;;;;;;28.63;7.53;;;19.70;95.50;;;;;;4969101;28;20391;-62
2022/05/12 05:07:52;;;;;;;20.45;6.15;;;19.70;95.50;;;;;;4986895;28;20014;-62
2022/05/12 05:10:20;;;;;;;20.55;6.35;;;19.70;95.60;;;;;;4963814;28;20510;-63
2022/05/12 05:12:47;;;;;;;22.88;6.05;;;19.70;95.30;;;;;;4976190;28;20034;-62
2022/05/12 05:15:16;;;;;;;16.58;6.03;;;19.70;95.30;;;;;;5020357;28;20052;-62
2022/05/12 05:17:45;;;;;;;16.48;6.43;;;19.70;95.20;;;;;;4978288;28;20490;-62
2022/05/12 05:20:18;;;;;;;15.75;5.38;;;19.70;95.50;;;;;;4969454;28;20058;-63
2022/05/12 05:22:47;;;;;;;29.60;5.78;;;19.70;95.40;;;;;;4955209;28;20062;-62
2022/05/12 05:25:15;;;;;;;20.85;5.90;;;19.70;95.60;;;;;;4966580;28;20499;-62
2022/05/12 05:27:44;;;;;;;18.17;6.28;;;19.70;96.10;;;;;;4953443;28;20049;-62
2022/05/12 05:30:15;;;;;;;21.25;5.75;;;19.70;95.90;;;;;;4966031;28;20026;-63
2022/05/12 05:32:42;;;;;;;13.40;5.47;;;19.70;96.00;;;;;;5020165;28;20033;-62
2022/05/12 05:35:12;;;;;;;21.48;6.28;;;19.60;95.90;;;;;;5005806;28;20034;-63
2022/05/12 05:37:40;;;;;;;17.88;4.82;;;19.60;96.00;;;;;;4952638;28;20443;-62
2022/05/12 05:40:08;;;;;;;16.85;5.97;;;19.60;96.10;;;;;;4962545;28;20035;-63
2022/05/12 05:42:38;;;;;;;17.85;6.90;;;19.60;96.10;;;;;;4957819;28;20064;-64
2022/05/12 05:45:10;;;;;;;17.13;6.43;;;19.60;96.20;;;;;;4958634;28;20078;-63
2022/05/12 05:47:39;;;;;;;17.70;7.20;;;19.50;96.40;;;;;;4966094;28;20102;-63
2022/05/12 05:50:08;;;;;;;21.80;8.00;;;19.50;96.50;;;;;;4999309;28;20024;-63
2022/05/12 05:55:22;;;;;;;23.55;8.13;;;19.40;96.60;;;;;;5040927;28;20044;-63
2022/05/12 05:57:49;;;;;;;25.73;8.50;;;19.40;96.50;;;;;;4975681;28;20491;-63
2022/05/12 06:00:17;;;;;;;24.77;7.63;;;19.30;96.60;;;;;;4980204;28;20516;-63
2022/05/12 06:02:45;;;;;;;28.65;9.05;;;19.30;96.70;;;;;;5019891;28;20484;-63
2022/05/12 06:05:12;;;;;;;18.15;7.35;;;19.30;96.90;;;;;;5019090;28;20101;-63
2022/05/12 06:07:40;;;;;;;21.55;8.45;;;19.30;96.90;;;;;;4964944;28;20023;-63
2022/05/12 06:10:08;;;;;;;20.52;8.27;;;19.30;97.00;;;;;;4971727;28;20023;-63
2022/05/12 06:12:37;;;;;;;26.38;8.57;;;19.20;97.00;;;;;;4975498;28;20479;-62
2022/05/12 06:15:06;;;;;;;26.60;9.23;;;19.10;97.00;;;;;;4954664;28;20488;-63
2022/05/12 06:17:34;;;;;;;29.13;9.52;;;19.10;97.10;;;;;;4958774;28;20624;-62
2022/05/12 06:20:03;;;;;;;33.65;9.65;;;19.10;97.30;;;;;;4964454;28;20023;-62
2022/05/12 06:22:30;;;;;;;30.48;11.30;;;19.00;97.30;;;;;;4962478;28;20027;-63
2022/05/12 06:24:57;;;;;;;30.67;10.35;;;19.00;97.50;;;;;;4978736;28;20061;-63
2022/05/12 06:27:25;;;;;;;26.13;10.65;;;19.00;97.60;;;;;;4990831;28;20019;-62
2022/05/12 06:29:52;;;;;;;36.00;10.65;;;19.00;97.60;;;;;;4989838;28;20030;-62
2022/05/12 06:32:19;;;;;;;31.48;10.73;;;18.90;97.60;;;;;;5035878;28;20036;-62
2022/05/12 06:34:46;;;;;;;21.35;9.68;;;18.90;97.70;;;;;;4965544;28;20027;-62
2022/05/12 06:37:14;;;;;;;26.85;9.80;;;18.90;97.70;;;;;;4965591;28;20031;-62
2022/05/12 06:39:41;;;;;;;29.63;10.60;;;18.90;97.80;;;;;;4961832;28;20028;-62
2022/05/12 06:42:08;;;;;;;30.80;10.80;;;18.90;97.90;;;;;;4967913;28;20050;-63
2022/05/12 06:44:36;;;;;;;31.10;10.73;;;18.80;97.90;;;;;;4998176;28;20077;-67
2022/05/12 06:47:08;;;;;;;32.58;11.98;;;18.80;97.90;;;;;;5020576;28;20068;-62
2022/05/12 06:49:35;;;;;;;31.00;11.68;;;18.70;98.00;;;;;;4981211;28;20105;-63
2022/05/12 06:52:08;;;;;;;33.75;12.80;;;18.80;98.20;;;;;;4988594;28;20043;-62
2022/05/12 06:54:40;;;;;;;34.00;14.95;;;18.80;98.10;;;;;;4961004;28;20051;-62
2022/05/12 06:57:10;;;;;;;31.05;12.25;;;18.70;98.10;;;;;;4977827;28;20034;-62
2022/05/12 06:59:41;;;;;;;28.25;11.38;;;18.70;98.10;;;;;;4962365;28;20023;-64
2022/05/12 07:02:09;;;;;;;35.40;12.05;;;18.70;98.10;;;;;;4976601;28;20054;-60
2022/05/12 07:04:36;;;;;;;32.70;12.25;;;18.70;98.10;;;;;;4974547;28;20027;-64
2022/05/12 07:07:05;;;;;;;31.52;13.05;;;18.60;98.10;;;;;;4980493;28;20074;-60
2022/05/12 07:09:33;;;;;;;32.75;11.43;;;18.60;98.20;;;;;;5000430;28;20073;-59
2022/05/12 07:12:00;;;;;;;34.40;12.35;;;18.60;98.30;;;;;;4995782;28;20040;-59
2022/05/12 07:14:27;;;;;;;25.95;12.82;;;18.60;98.30;;;;;;5013765;28;20095;-59
2022/05/12 07:16:55;;;;;;;34.85;13.07;;;18.50;98.20;;;;;;5028640;28;20027;-60
2022/05/12 07:19:22;;;;;;;35.38;13.52;;;18.50;98.40;;;;;;4982524;28;20018;-59
2022/05/12 07:27:20;;;;;;;35.47;13.18;;;18.50;98.60;;;;;;5016702;28;20428;-59
2022/05/12 07:29:47;;;;;;;33.28;13.10;;;18.40;98.50;;;;;;5029978;28;20075;-59
2022/05/12 07:32:14;;;;;;;34.10;15.02;;;18.40;98.60;;;;;;5005756;28;20461;-59
2022/05/12 07:34:42;;;;;;;36.13;13.30;;;18.40;98.60;;;;;;4961164;28;20420;-59
2022/05/12 07:37:09;;;;;;;32.90;12.60;;;18.40;98.60;;;;;;4954298;28;20075;-59
2022/05/12 07:39:37;;;;;;;37.35;14.48;;;18.40;98.70;;;;;;4957348;28;20510;-61
2022/05/12 07:42:05;;;;;;;32.17;12.18;;;18.40;98.70;;;;;;4959532;28;20088;-59
2022/05/12 07:44:34;;;;;;;44.03;15.43;;;18.40;98.70;;;;;;4974061;28;20023;-59
2022/05/12 07:47:04;;;;;;;40.03;14.40;;;18.40;98.80;;;;;;4977891;28;20087;-59
2022/05/12 07:49:35;;;;;;;34.10;14.00;;;18.40;99.10;;;;;;5047981;28;20060;-60
2022/05/12 07:52:06;;;;;;;48.20;15.18;;;18.40;98.80;;;;;;4980359;28;20082;-62
2022/05/12 07:54:34;;;;;;;56.20;15.88;;;18.40;98.80;;;;;;5010715;28;20019;-63
2022/05/12 07:57:01;;;;;;;40.25;14.35;;;18.40;98.80;;;;;;4987496;28;20026;-64
2022/05/12 07:59:29;;;;;;;41.88;14.77;;;18.40;98.80;;;;;;5042151;28;20107;-61
2022/05/12 08:01:58;;;;;;;37.63;12.80;;;18.40;98.90;;;;;;5000601;28;20042;-63
2022/05/12 08:04:27;;;;;;;32.60;11.48;;;18.40;98.90;;;;;;5025459;28;20025;-67
2022/05/12 08:06:54;;;;;;;28.52;9.52;;;18.30;98.80;;;;;;5016063;28;20114;-66
2022/05/12 08:09:22;;;;;;;32.40;9.75;;;18.30;98.80;;;;;;4961438;28;20622;-68
2022/05/12 08:11:49;;;;;;;30.33;10.73;;;18.40;99.00;;;;;;4985524;28;20078;-66
2022/05/12 08:14:16;;;;;;;27.20;9.48;;;18.40;99.00;;;;;;4970541;28;20088;-66
2022/05/12 08:16:44;;;;;;;30.95;9.45;;;18.30;99.00;;;;;;4983129;28;20026;-67
2022/05/12 08:19:11;;;;;;;29.17;8.88;;;18.30;99.00;;;;;;5022709;28;20084;-66
2022/05/12 08:21:38;;;;;;;23.45;9.27;;;18.30;98.90;;;;;;4976158;28;20447;-66
2022/05/12 08:24:06;;;;;;;26.85;8.93;;;18.30;98.90;;;;;;5025008;28;20090;-66
2022/05/12 08:26:33;;;;;;;19.38;7.57;;;18.30;98.90;;;;;;4951558;28;20073;-66
2022/05/12 08:29:00;;;;;;;19.33;7.05;;;18.30;98.90;;;;;;4965450;28;20026;-66
2022/05/12 08:31:30;;;;;;;25.80;8.75;;;18.30;98.90;;;;;;5032333;28;20633;-66
2022/05/12 08:33:59;;;;;;;23.23;8.68;;;18.20;98.90;;;;;;4966817;28;20073;-67
2022/05/12 08:36:27;;;;;;;30.30;10.55;;;18.20;98.90;;;;;;4954990;28;20028;-66
2022/05/12 08:38:55;;;;;;;27.27;8.73;;;18.20;98.90;;;;;;4967096;28;20027;-65
2022/05/12 08:41:40;;;;;;;27.10;9.32;;;18.20;99.00;;;;;;4965251;28;20027;-65
2022/05/12 08:44:14;;;;;;;21.65;8.43;;;18.20;99.00;;;;;;4977092;28;20124;-67
2022/05/12 08:46:49;;;;;;;22.83;7.78;;;18.20;99.00;;;;;;5001844;28;20023;-65
2022/05/12 08:49:36;;;;;;;29.05;9.57;;;18.20;99.00;;;;;;4972013;28;20047;-65
2022/05/12 08:52:17;;;;;;;28.48;8.88;;;18.20;99.00;;;;;;4955726;28;20142;-66
2022/05/12 08:55:09;;;;;;;40.20;11.75;;;18.20;99.00;;;;;;4951080;28;20112;-65
2022/05/12 08:57:59;;;;;;;36.47;11.07;;;18.20;99.10;;;;;;4975435;28;20494;-65
2022/05/12 09:00:32;;;;;;;33.13;11.52;;;18.30;99.60;;;;;;4963410;28;20030;-65
2022/05/12 09:03:09;;;;;;;38.88;12.43;;;18.30;99.80;;;;;;4996742;28;20085;-65
2022/05/12 09:06:00;;;;;;;43.25;11.73;;;18.30;99.80;;;;;;4951651;28;20608;-66
2022/05/12 09:08:50;;;;;;;48.55;12.18;;;18.30;99.80;;;;;;4958048;28;20579;-65
2022/05/12 09:11:38;;;;;;;51.13;13.27;;;18.30;99.80;;;;;;4977924;28;20520;-65
2022/05/12 09:14:16;;;;;;;34.15;11.05;;;18.30;99.80;;;;;;4973080;28;20058;-65
2022/05/12 09:16:43;;;;;;;38.40;11.50;;;18.30;99.80;;;;;;4969969;28;20034;-65
2022/05/12 09:19:16;;;;;;;40.50;12.13;;;18.30;99.80;;;;;;5032502;28;20025;-64
2022/05/12 09:21:43;;;;;;;34.00;10.18;;;18.20;99.70;;;;;;4981672;28;20035;-64
2022/05/12 09:24:11;;;;;;;35.35;10.50;;;18.20;99.70;;;;;;4951901;28;20029;-65
2022/05/12 09:26:48;;;;;;;32.42;12.40;;;18.20;99.80;;;;;;4951721;28;20034;-66
2022/05/12 09:29:22;;;;;;;33.92;11.70;;;18.20;99.80;;;;;;4948796;28;20486;-65
2022/05/12 09:31:55;;;;;;;37.45;11.50;;;18.10;99.80;;;;;;4958679;28;20058;-70
2022/05/12 09:34:36;;;;;;;37.55;12.00;;;18.10;99.80;;;;;;5005415;28;20027;-65
2022/05/12 09:37:20;;;;;;;39.85;11.25;;;18.10;99.80;;;;;;5014065;28;20407;-65
2022/05/12 09:39:50;;;;;;;39.80;11.83;;;18.10;99.80;;;;;;4965202;28;20712;-65
2022/05/12 09:42:41;;;;;;;34.47;11.38;;;18.10;99.80;;;;;;4966016;28;20300;-65
2022/05/12 09:45:34;;;;;;;41.33;11.43;;;18.00;99.80;;;;;;4960583;28;20035;-66
2022/05/12 09:48:18;;;;;;;35.85;11.90;;;18.10;99.90;;;;;;4995652;28;20394;-66
2022/05/12 09:50:47;;;;;;;31.42;12.63;;;18.10;99.90;;;;;;5013214;28;20454;-67
2022/05/12 09:53:25;;;;;;;39.35;11.57;;;18.10;99.90;;;;;;4979379;28;20043;-65
2022/05/12 09:56:04;;;;;;;33.03;11.00;;;18.00;99.90;;;;;;4973379;28;20384;-65
2022/05/12 09:58:37;;;;;;;39.00;11.77;;;18.00;99.80;;;;;;4959111;28;20548;-67
2022/05/12 10:01:20;;;;;;;40.17;11.85;;;18.00;99.90;;;;;;4965062;28;20053;-67
2022/05/12 10:09:33;;;;;;;29.23;10.55;;;17.90;99.80;;;;;;4970360;28;20834;-66
2022/05/12 10:12:14;;;;;;;28.17;10.50;;;17.90;99.70;;;;;;4995267;28;20026;-66
2022/05/12 10:14:52;;;;;;;34.33;10.38;;;17.90;99.70;;;;;;5037346;28;20529;-67
2022/05/12 10:17:49;;;;;;;20.90;9.15;;;17.80;99.70;;;;;;4972346;28;20031;-67
2022/05/12 10:20:19;;;;;;;35.13;10.95;;;17.80;99.70;;;;;;4952965;28;20027;-67
2022/05/12 10:23:05;;;;;;;31.58;10.10;;;17.80;99.70;;;;;;4967752;28;20030;-67
2022/05/12 10:25:59;;;;;;;26.38;10.77;;;17.70;99.70;;;;;;4966703;28;20035;-66
2022/05/12 10:28:51;;;;;;;28.17;10.73;;;17.80;99.80;;;;;;4963023;28;20076;-66
2022/05/12 10:31:28;;;;;;;38.50;12.43;;;17.80;99.80;;;;;;4973771;28;20038;-66
2022/05/12 10:34:17;;;;;;;42.97;13.57;;;17.80;99.90;;;;;;4991442;28;20030;-67
2022/05/12 10:37:03;;;;;;;39.05;15.27;;;17.80;99.90;;;;;;5026943;28;20675;-66
2022/05/12 10:39:39;;;;;;;37.47;14.30;;;17.80;99.90;;;;;;4960986;28;20035;-67
2022/05/12 10:42:45;;;;;;;35.38;14.40;;;17.90;99.90;;;;;;4962853;28;20050;-67
2022/05/12 10:45:16;;;;;;;43.20;16.33;;;17.90;99.90;;;;;;4959767;28;20070;-67
2022/05/12 10:48:10;;;;;;;50.20;17.33;;;17.90;99.90;;;;;;4957477;28;20038;-66
2022/05/12 10:51:02;;;;;;;55.77;18.47;;;17.90;99.90;;;;;;4962072;28;20038;-67
2022/05/12 10:53:54;;;;;;;52.17;19.83;;;17.90;99.90;;;;;;4968796;28;20308;-67
2022/05/12 10:56:30;;;;;;;56.65;17.60;;;18.00;99.90;;;;;;4952916;28;20101;-67
2022/05/12 10:59:25;;;;;;;58.88;19.10;;;18.00;99.90;;;;;;4970848;28;20048;-67
2022/05/12 11:02:13;;;;;;;60.35;18.95;;;18.00;99.90;;;;;;4965932;28;20129;-66
2022/05/12 11:05:00;;;;;;;55.10;18.73;;;18.00;99.90;;;;;;4964230;28;20030;-67
2022/05/12 11:07:32;;;;;;;46.35;16.55;;;18.00;99.90;;;;;;4953070;28;20050;-66
2022/05/12 11:10:31;;;;;;;46.08;16.42;;;18.00;99.90;;;;;;4954728;28;20031;-66
2022/05/12 11:13:12;;;;;;;49.47;16.67;;;18.00;99.90;;;;;;4966134;28;20045;-66
2022/05/12 11:16:00;;;;;;;47.55;15.32;;;18.00;99.90;;;;;;4978917;28;20109;-66
2022/05/12 11:18:53;;;;;;;49.10;17.15;;;18.00;99.90;;;;;;4959649;28;20088;-66
2022/05/12 11:21:25;;;;;;;44.17;16.17;;;18.00;99.90;;;;;;4971768;28;20047;-66
2022/05/12 11:24:04;;;;;;;55.22;18.92;;;18.00;99.90;;;;;;4979168;28;20065;-66
2022/05/12 11:26:42;;;;;;;53.65;17.45;;;18.00;99.90;;;;;;4960019;28;20024;-66
2022/05/12 11:32:21;;;;;;;47.58;17.10;;;18.00;99.90;;;;;;4978829;28;20053;-66
2022/05/12 11:34:57;;;;;;;44.15;16.35;;;17.90;99.90;;;;;;4966202;28;20022;-66
2022/05/12 11:38:00;;;;;;;42.13;15.88;;;18.00;99.90;;;;;;4975651;28;20863;-66
2022/05/12 11:40:48;;;;;;;45.05;16.17;;;17.90;99.90;;;;;;4959271;28;20088;-66
2022/05/12 11:46:30;;;;;;;41.97;14.65;;;17.90;99.90;;;;;;4953549;28;20426;-66
2022/05/12 11:49:12;;;;;;;49.00;14.77;;;17.90;99.90;;;;;;4969353;28;20027;-65
2022/05/12 11:51:48;;;;;;;48.85;14.95;;;17.90;99.90;;;;;;4975677;28;20043;-66
2022/05/12 11:54:34;;;;;;;46.55;16.35;;;17.90;99.90;;;;;;4966117;28;20058;-64
2022/05/12 11:57:04;;;;;;;46.90;16.92;;;17.80;99.90;;;;;;5018114;28;20501;-61
2022/05/12 11:59:33;;;;;;;55.33;18.45;;;17.80;99.90;;;;;;4970603;28;20031;-66
2022/05/12 12:02:05;;;;;;;60.80;17.75;;;17.90;99.90;;;;;;4956369;28;20047;-66
2022/05/12 12:04:51;;;;;;;60.58;17.30;;;17.90;99.90;;;;;;4960151;28;20554;-66
2022/05/12 12:07:35;;;;;;;66.63;21.20;;;17.90;99.90;;;;;;4954163;28;20031;-67
2022/05/12 12:10:31;;;;;;;71.75;19.83;;;17.90;99.90;;;;;;4995051;28;20022;-66
2022/05/12 12:13:35;;;;;;;59.85;19.35;;;17.90;99.90;;;;;;4973904;28;20055;-66
2022/05/12 12:16:05;;;;;;;68.40;19.65;;;17.90;99.90;;;;;;4978710;28;20027;-66
2022/05/12 12:18:35;;;;;;;55.72;17.38;;;17.90;99.90;;;;;;4974723;28;20030;-66
2022/05/12 12:21:41;;;;;;;73.60;19.70;;;17.90;99.90;;;;;;5009673;28;20027;-66
2022/05/12 12:24:14;;;;;;;69.63;19.45;;;17.90;99.90;;;;;;4953129;28;20033;-66
2022/05/12 12:26:44;;;;;;;60.22;18.15;;;17.90;99.90;;;;;;4951658;28;21253;-66
2022/05/12 12:29:17;;;;;;;71.75;19.75;;;17.80;99.90;;;;;;4959537;28;20084;-66
2022/05/12 12:31:47;;;;;;;68.88;18.83;;;17.80;99.70;;;;;;4972467;28;20046;-66
2022/05/12 12:34:18;;;;;;;73.05;18.88;;;17.80;99.90;;;;;;4959699;28;20022;-67
2022/05/12 12:36:51;;;;;;;60.17;18.48;;;17.80;99.90;;;;;;4969187;28;20026;-66
2022/05/12 12:39:30;;;;;;;59.83;18.40;;;17.90;99.90;;;;;;5014068;28;20053;-66
2022/05/12 12:42:27;;;;;;;67.15;19.58;;;17.90;99.90;;;;;;4975104;28;20030;-67
2022/05/12 12:44:59;;;;;;;59.42;17.80;;;17.90;99.90;;;;;;4965598;28;20112;-67
2022/05/12 12:47:59;;;;;;;70.80;18.65;;;17.90;99.90;;;;;;4968122;28;20031;-67
2022/05/12 12:50:46;;;;;;;70.00;18.70;;;17.90;99.90;;;;;;4959058;28;20495;-67
2022/05/12 12:56:30;;;;;;;53.05;16.48;;;17.90;99.90;;;;;;4964291;28;20074;-67
2022/05/12 12:56:31;;;;;;;59.58;16.45;;;17.90;99.90;;;;;;4970560;28;20164;-68
2022/05/12 12:59:17;;;;;;;80.63;19.35;;;17.90;99.90;;;;;;4966197;28;20655;-67
2022/05/12 13:02:03;;;;;;;71.90;22.67;;;17.90;99.90;;;;;;4969612;28;20051;-67
2022/05/12 13:04:35;;;;;;;78.88;22.73;;;17.90;99.90;;;;;;4969760;28;20030;-67
2022/05/12 13:07:10;;;;;;;85.43;20.80;;;17.90;99.90;;;;;;4975490;28;20507;-66
2022/05/12 13:09:41;;;;;;;84.13;23.45;;;17.90;99.90;;;;;;4983515;28;20517;-67
2022/05/12 13:12:13;;;;;;;121.70;35.78;;;17.90;99.90;;;;;;5054946;28;20042;-67
2022/05/12 13:14:43;;;;;;;149.85;50.33;;;17.90;99.90;;;;;;4972994;28;20042;-67
2022/05/12 13:17:27;;;;;;;106.78;42.00;;;17.90;99.90;;;;;;4968799;28;20111;-68
2022/05/12 13:19:57;;;;;;;90.47;31.27;;;17.90;99.90;;;;;;4962083;28;20390;-67